Helliar — 2EPP5 — position and weather

sailwx.info

Track history (hours):
 
Tides and Currents Weather Stations Pressure Air Temp Water Temp Dewpoint Dewpoint Depression Visibility Wind Speed Wind Dir Waves Ship Positions

Helliar

Last reported at 2015-Apr-18 02:34 UTC. Time now 2015-Apr-18 03:28 UTC.
Position N 57°47' W 001°37'.

Length 122 m; draft 5.4 m.

Type: Cargo ship. MMSI: 235087119.

Date/timePositionNaut miles runAvg speedWind from/ knotsBaromVisibWave heightAir tempDewpointWater temp
2015-Apr-18 02:34N 57°47' W 001°37'1 0.0
2015-Apr-16 19:24N 57°47' W 001°38'1214.0
2015-Apr-16 18:33N 57°36' W 001°41'1414.5
2015-Apr-16 17:33N 57°22' W 001°46'1514.9
2015-Apr-16 16:33N 57°09' W 002°02'2 1.4
2015-Apr-16 15:16N 57°09' W 002°05'0 0.0
2015-Apr-16 14:28N 57°09' W 002°05'0 0.0
2015-Apr-16 13:28N 57°09' W 002°05'0 0.0
2015-Apr-16 12:22N 57°09' W 002°05'0 0.0
2015-Apr-16 11:16N 57°09' W 002°05'0 0.0
2015-Apr-16 10:28N 57°09' W 002°05'0 0.0
2015-Apr-16 09:28N 57°09' W 002°05'0 0.0
2015-Apr-16 08:28N 57°09' W 002°05'0 0.0
2015-Apr-16 07:22N 57°09' W 002°05'0 0.2
2015-Apr-16 06:33N 57°09' W 002°05'1110.9
2015-Apr-16 05:33N 57°16' W 001°51'1312.7
2015-Apr-16 04:33N 57°27' W 001°37'1313.2
2015-Apr-16 03:34N 57°39' W 001°29'1413.6
2015-Apr-16 02:33N 57°53' W 001°24'8 0.3
2015-Apr-14 20:16N 57°49' W 001°37'1013.7
2015-Apr-14 19:34N 57°39' W 001°39'1413.6
2015-Apr-14 18:34N 57°26' W 001°42'1714.6
2015-Apr-14 17:25N 57°11' W 001°58'5 5.6
2015-Apr-14 16:32N 57°09' W 002°05'0 0.0
2015-Apr-14 15:32N 57°09' W 002°05'0 0.0
2015-Apr-14 14:32N 57°09' W 002°05'0 0.0
2015-Apr-14 13:32N 57°09' W 002°05'0 0.0
2015-Apr-14 12:32N 57°09' W 002°05'0 0.0
2015-Apr-14 11:32N 57°09' W 002°05'0 0.0
2015-Apr-14 10:32N 57°09' W 002°05'0 0.0
2015-Apr-14 09:32N 57°09' W 002°05'0 0.0
2015-Apr-14 08:32N 57°09' W 002°05'0 0.0
2015-Apr-14 07:32N 57°09' W 002°05'0 0.0
2015-Apr-14 06:32N 57°09' W 002°05'0 0.0
2015-Apr-14 05:32N 57°09' W 002°05'1 1.3
2015-Apr-14 04:33N 57°09' W 002°03'2512.3
2015-Apr-14 02:33N 57°30' W 001°39'1212.5
2015-Apr-14 01:33N 57°41' W 001°47'1211.7
2015-Apr-14 00:32N 57°53' W 001°54'7512.5
2015-Apr-13 18:33N 59°01' W 002°53'2 0.1
2015-Apr-12 22:33N 59°02' W 002°56'1211.6
2015-Apr-12 21:33N 58°56' W 002°37'7113.6
2015-Apr-12 16:21N 57°49' W 001°52'1013.0
2015-Apr-12 15:33N 57°39' W 001°45'1313.5
2015-Apr-12 14:33N 57°26' W 001°44'1514.6
2015-Apr-12 13:33N 57°13' W 001°57'6 6.3
2015-Apr-12 12:33N 57°09' W 002°05'0 0.0
2015-Apr-12 11:33N 57°09' W 002°05'0 0.0
2015-Apr-12 10:31N 57°09' W 002°05'0 0.0
2015-Apr-12 09:25N 57°09' W 002°05'2 2.4
2015-Apr-12 08:28N 57°09' W 002°01'1111.0
2015-Apr-12 07:30N 57°18' W 001°51'1313.7
2015-Apr-12 06:33N 57°30' W 001°41'1413.6
2015-Apr-12 05:34N 57°43' W 001°48'1212.4
2015-Apr-12 04:33N 57°48' W 002°09'4610.5
2015-Apr-12 00:10N 58°28' W 002°51'913.4
2015-Apr-11 23:28N 58°37' W 002°46'1212.7
2015-Apr-11 22:30N 58°49' W 002°38'1110.7
2015-Apr-11 21:27N 58°60' W 002°45'5 0.6
2015-Apr-11 13:33N 59°01' W 002°54'83 4.3
2015-Apr-10 18:18N 57°48' W 001°37'1114.1
2015-Apr-10 17:33N 57°38' W 001°40'1313.3
2015-Apr-10 16:33N 57°25' W 001°45'1513.7
2015-Apr-10 15:26N 57°11' W 001°59'4 4.2
2015-Apr-10 14:26N 57°09' W 002°05'0 0.0
2015-Apr-10 13:20N 57°09' W 002°05'0 0.0
2015-Apr-10 12:32N 57°09' W 002°05'0 0.0
2015-Apr-10 11:32N 57°09' W 002°05'0 0.0
2015-Apr-10 10:32N 57°09' W 002°05'0 0.0
2015-Apr-10 09:32N 57°09' W 002°05'0 0.0
2015-Apr-10 08:26N 57°09' W 002°05'0 0.0
2015-Apr-10 07:26N 57°09' W 002°05'0 0.4
2015-Apr-10 06:33N 57°08' W 002°04'1111.1
2015-Apr-10 05:33N 57°14' W 001°47'1010.3
2015-Apr-10 04:33N 57°23' W 001°36'1312.5
2015-Apr-10 03:33N 57°35' W 001°35'1212.3
2015-Apr-10 02:33N 57°48' W 001°35'81 3.6
2015-Apr-09 04:10N 59°04' W 002°28'812.4
2015-Apr-09 03:33N 59°01' W 002°41'9 8.6
2015-Apr-09 02:32N 58°60' W 002°58'0 0.0
2015-Apr-09 01:32N 58°60' W 002°58'3 2.8
2015-Apr-09 00:33N 59°01' W 002°53'1212.0
2015-Apr-08 23:33N 58°53' W 002°35'6514.8
2015-Apr-08 19:09N 57°52' W 001°54'915.6
2015-Apr-08 18:33N 57°43' W 001°48'1515.5
2015-Apr-08 17:33N 57°28' W 001°43'1814.3
2015-Apr-08 16:16N 57°12' W 001°59'4 4.6
2015-Apr-08 15:20N 57°09' W 002°05'0 0.0
2015-Apr-08 14:32N 57°09' W 002°05'0 0.0
2015-Apr-08 11:19N 57°09' W 002°05'0 0.0
2015-Apr-08 10:05N 57°09' W 002°05'0 0.0
2015-Apr-08 09:33N 57°09' W 002°05'  
Track history (hours):
 
Tides and Currents Weather Stations Pressure Air Temp Water Temp Dewpoint Dewpoint Depression Visibility Wind Speed Wind Dir Waves Ship Positions

Helliar

Last reported at 2015-Apr-18 02:34 UTC. Time now 2015-Apr-18 03:28 UTC.
Position N 57°47' W 001°37'.

Length 122 m; draft 5.4 m.

Type: Cargo ship. MMSI: 235087119.

Date/timePositionNaut miles runAvg speedWind from/ knotsBaromVisibWave heightAir tempDewpointWater temp
2015-Apr-18 02:34N 57°47' W 001°37'1 0.0
2015-Apr-16 19:24N 57°47' W 001°38'1214.0
2015-Apr-16 18:33N 57°36' W 001°41'1414.5
2015-Apr-16 17:33N 57°22' W 001°46'1514.9
2015-Apr-16 16:33N 57°09' W 002°02'2 1.4
2015-Apr-16 15:16N 57°09' W 002°05'0 0.0
2015-Apr-16 14:28N 57°09' W 002°05'0 0.0
2015-Apr-16 13:28N 57°09' W 002°05'0 0.0
2015-Apr-16 12:22N 57°09' W 002°05'0 0.0
2015-Apr-16 11:16N 57°09' W 002°05'0 0.0
2015-Apr-16 10:28N 57°09' W 002°05'0 0.0
2015-Apr-16 09:28N 57°09' W 002°05'0 0.0
2015-Apr-16 08:28N 57°09' W 002°05'0 0.0
2015-Apr-16 07:22N 57°09' W 002°05'0 0.2
2015-Apr-16 06:33N 57°09' W 002°05'1110.9
2015-Apr-16 05:33N 57°16' W 001°51'1312.7
2015-Apr-16 04:33N 57°27' W 001°37'1313.2
2015-Apr-16 03:34N 57°39' W 001°29'1413.6
2015-Apr-16 02:33N 57°53' W 001°24'8 0.3
2015-Apr-14 20:16N 57°49' W 001°37'1013.7
2015-Apr-14 19:34N 57°39' W 001°39'1413.6
2015-Apr-14 18:34N 57°26' W 001°42'1714.6
2015-Apr-14 17:25N 57°11' W 001°58'5 5.6
2015-Apr-14 16:32N 57°09' W 002°05'0 0.0
2015-Apr-14 15:32N 57°09' W 002°05'0 0.0
2015-Apr-14 14:32N 57°09' W 002°05'0 0.0
2015-Apr-14 13:32N 57°09' W 002°05'0 0.0
2015-Apr-14 12:32N 57°09' W 002°05'0 0.0
2015-Apr-14 11:32N 57°09' W 002°05'0 0.0
2015-Apr-14 10:32N 57°09' W 002°05'0 0.0
2015-Apr-14 09:32N 57°09' W 002°05'0 0.0
2015-Apr-14 08:32N 57°09' W 002°05'0 0.0
2015-Apr-14 07:32N 57°09' W 002°05'0 0.0
2015-Apr-14 06:32N 57°09' W 002°05'0 0.0
2015-Apr-14 05:32N 57°09' W 002°05'1 1.3
2015-Apr-14 04:33N 57°09' W 002°03'2512.3
2015-Apr-14 02:33N 57°30' W 001°39'1212.5
2015-Apr-14 01:33N 57°41' W 001°47'1211.7
2015-Apr-14 00:32N 57°53' W 001°54'7512.5
2015-Apr-13 18:33N 59°01' W 002°53'2 0.1
2015-Apr-12 22:33N 59°02' W 002°56'1211.6
2015-Apr-12 21:33N 58°56' W 002°37'7113.6
2015-Apr-12 16:21N 57°49' W 001°52'1013.0
2015-Apr-12 15:33N 57°39' W 001°45'1313.5
2015-Apr-12 14:33N 57°26' W 001°44'1514.6
2015-Apr-12 13:33N 57°13' W 001°57'6 6.3
2015-Apr-12 12:33N 57°09' W 002°05'0 0.0
2015-Apr-12 11:33N 57°09' W 002°05'0 0.0
2015-Apr-12 10:31N 57°09' W 002°05'0 0.0
2015-Apr-12 09:25N 57°09' W 002°05'2 2.4
2015-Apr-12 08:28N 57°09' W 002°01'1111.0
2015-Apr-12 07:30N 57°18' W 001°51'1313.7
2015-Apr-12 06:33N 57°30' W 001°41'1413.6
2015-Apr-12 05:34N 57°43' W 001°48'1212.4
2015-Apr-12 04:33N 57°48' W 002°09'4610.5
2015-Apr-12 00:10N 58°28' W 002°51'913.4
2015-Apr-11 23:28N 58°37' W 002°46'1212.7
2015-Apr-11 22:30N 58°49' W 002°38'1110.7
2015-Apr-11 21:27N 58°60' W 002°45'5 0.6
2015-Apr-11 13:33N 59°01' W 002°54'83 4.3
2015-Apr-10 18:18N 57°48' W 001°37'1114.1
2015-Apr-10 17:33N 57°38' W 001°40'1313.3
2015-Apr-10 16:33N 57°25' W 001°45'1513.7
2015-Apr-10 15:26N 57°11' W 001°59'4 4.2
2015-Apr-10 14:26N 57°09' W 002°05'0 0.0
2015-Apr-10 13:20N 57°09' W 002°05'0 0.0
2015-Apr-10 12:32N 57°09' W 002°05'0 0.0
2015-Apr-10 11:32N 57°09' W 002°05'0 0.0
2015-Apr-10 10:32N 57°09' W 002°05'0 0.0
2015-Apr-10 09:32N 57°09' W 002°05'0 0.0
2015-Apr-10 08:26N 57°09' W 002°05'0 0.0
2015-Apr-10 07:26N 57°09' W 002°05'0 0.4
2015-Apr-10 06:33N 57°08' W 002°04'1111.1
2015-Apr-10 05:33N 57°14' W 001°47'1010.3
2015-Apr-10 04:33N 57°23' W 001°36'1312.5
2015-Apr-10 03:33N 57°35' W 001°35'1212.3
2015-Apr-10 02:33N 57°48' W 001°35'81 3.6
2015-Apr-09 04:10N 59°04' W 002°28'812.4
2015-Apr-09 03:33N 59°01' W 002°41'9 8.6
2015-Apr-09 02:32N 58°60' W 002°58'0 0.0
2015-Apr-09 01:32N 58°60' W 002°58'3 2.8
2015-Apr-09 00:33N 59°01' W 002°53'1212.0
2015-Apr-08 23:33N 58°53' W 002°35'6514.8
2015-Apr-08 19:09N 57°52' W 001°54'915.6
2015-Apr-08 18:33N 57°43' W 001°48'1515.5
2015-Apr-08 17:33N 57°28' W 001°43'1814.3
2015-Apr-08 16:16N 57°12' W 001°59'4 4.6
2015-Apr-08 15:20N 57°09' W 002°05'0 0.0
2015-Apr-08 14:32N 57°09' W 002°05'0 0.0
2015-Apr-08 11:19N 57°09' W 002°05'0 0.0
2015-Apr-08 10:05N 57°09' W 002°05'0 0.0
2015-Apr-08 09:33N 57°09' W 002°05'  

Dump ship's entire track history